sensor_id;sensor_type;location;lat;lon;timestamp;P1;durP1;ratioP1;P2;durP2;ratioP2
5929;SDS011;2990;48.746;9.236;2023-07-20T00:01:13;597.17;;;559.38;;
5929;SDS011;2990;48.746;9.236;2023-07-20T00:03:38;599.38;;;561.30;;
5929;SDS011;2990;48.746;9.236;2023-07-20T00:06:04;578.40;;;542.65;;
5929;SDS011;2990;48.746;9.236;2023-07-20T00:08:30;578.47;;;542.25;;
5929;SDS011;2990;48.746;9.236;2023-07-20T00:10:56;572.50;;;536.85;;
5929;SDS011;2990;48.746;9.236;2023-07-20T00:13:21;579.65;;;543.92;;
5929;SDS011;2990;48.746;9.236;2023-07-20T00:15:47;554.35;;;520.72;;
5929;SDS011;2990;48.746;9.236;2023-07-20T00:18:13;549.28;;;516.22;;
5929;SDS011;2990;48.746;9.236;2023-07-20T00:20:38;520.17;;;489.02;;
5929;SDS011;2990;48.746;9.236;2023-07-20T00:23:04;515.83;;;484.95;;
5929;SDS011;2990;48.746;9.236;2023-07-20T00:25:30;515.58;;;484.83;;
5929;SDS011;2990;48.746;9.236;2023-07-20T00:27:56;511.88;;;481.40;;
5929;SDS011;2990;48.746;9.236;2023-07-20T00:30:21;511.83;;;481.80;;
5929;SDS011;2990;48.746;9.236;2023-07-20T00:32:47;482.40;;;454.20;;
5929;SDS011;2990;48.746;9.236;2023-07-20T00:35:12;499.90;;;470.65;;
5929;SDS011;2990;48.746;9.236;2023-07-20T00:37:39;468.83;;;441.55;;
5929;SDS011;2990;48.746;9.236;2023-07-20T00:40:05;479.20;;;451.10;;
5929;SDS011;2990;48.746;9.236;2023-07-20T00:42:32;476.65;;;449.42;;
5929;SDS011;2990;48.746;9.236;2023-07-20T00:44:58;457.10;;;430.63;;
5929;SDS011;2990;48.746;9.236;2023-07-20T00:47:24;467.88;;;440.83;;
5929;SDS011;2990;48.746;9.236;2023-07-20T00:49:50;438.58;;;414.02;;
5929;SDS011;2990;48.746;9.236;2023-07-20T00:52:16;454.33;;;428.90;;
5929;SDS011;2990;48.746;9.236;2023-07-20T00:54:45;403.77;;;381.42;;
5929;SDS011;2990;48.746;9.236;2023-07-20T00:57:11;451.08;;;425.90;;
5929;SDS011;2990;48.746;9.236;2023-07-20T00:59:42;433.00;;;409.13;;
5929;SDS011;2990;48.746;9.236;2023-07-20T01:02:08;406.42;;;384.33;;
5929;SDS011;2990;48.746;9.236;2023-07-20T01:04:34;401.35;;;379.25;;
5929;SDS011;2990;48.746;9.236;2023-07-20T01:07:11;400.38;;;378.45;;
5929;SDS011;2990;48.746;9.236;2023-07-20T01:09:55;383.98;;;363.45;;
5929;SDS011;2990;48.746;9.236;2023-07-20T01:12:43;365.20;;;345.83;;
5929;SDS011;2990;48.746;9.236;2023-07-20T01:15:17;344.80;;;326.95;;
5929;SDS011;2990;48.746;9.236;2023-07-20T01:17:42;320.42;;;303.75;;
5929;SDS011;2990;48.746;9.236;2023-07-20T01:20:10;314.02;;;297.85;;
5929;SDS011;2990;48.746;9.236;2023-07-20T01:33:35;260.55;;;247.95;;
5929;SDS011;2990;48.746;9.236;2023-07-20T01:36:01;260.38;;;247.68;;
5929;SDS011;2990;48.746;9.236;2023-07-20T01:38:28;267.85;;;255.00;;
5929;SDS011;2990;48.746;9.236;2023-07-20T01:40:54;269.73;;;256.52;;
5929;SDS011;2990;48.746;9.236;2023-07-20T01:43:20;250.27;;;238.15;;
5929;SDS011;2990;48.746;9.236;2023-07-20T01:45:47;254.07;;;241.57;;
5929;SDS011;2990;48.746;9.236;2023-07-20T01:48:12;274.85;;;261.42;;
5929;SDS011;2990;48.746;9.236;2023-07-20T01:50:38;254.00;;;241.85;;
5929;SDS011;2990;48.746;9.236;2023-07-20T01:53:04;238.20;;;226.68;;
5929;SDS011;2990;48.746;9.236;2023-07-20T01:55:29;243.20;;;231.57;;
5929;SDS011;2990;48.746;9.236;2023-07-20T01:57:55;259.98;;;247.45;;
5929;SDS011;2990;48.746;9.236;2023-07-20T02:00:21;251.68;;;239.68;;
5929;SDS011;2990;48.746;9.236;2023-07-20T02:02:49;259.50;;;247.10;;
5929;SDS011;2990;48.746;9.236;2023-07-20T02:05:15;241.75;;;230.15;;
5929;SDS011;2990;48.746;9.236;2023-07-20T02:07:41;244.13;;;232.43;;
5929;SDS011;2990;48.746;9.236;2023-07-20T02:10:07;248.68;;;236.75;;
5929;SDS011;2990;48.746;9.236;2023-07-20T02:12:32;203.52;;;194.07;;
5929;SDS011;2990;48.746;9.236;2023-07-20T02:14:58;206.90;;;197.32;;
5929;SDS011;2990;48.746;9.236;2023-07-20T02:17:24;210.20;;;200.45;;
5929;SDS011;2990;48.746;9.236;2023-07-20T02:19:52;228.38;;;217.50;;
5929;SDS011;2990;48.746;9.236;2023-07-20T02:22:19;220.35;;;210.10;;
5929;SDS011;2990;48.746;9.236;2023-07-20T02:24:45;210.48;;;200.75;;
5929;SDS011;2990;48.746;9.236;2023-07-20T02:27:11;197.18;;;187.98;;
5929;SDS011;2990;48.746;9.236;2023-07-20T02:29:37;205.05;;;195.68;;
5929;SDS011;2990;48.746;9.236;2023-07-20T02:32:03;172.88;;;165.10;;
5929;SDS011;2990;48.746;9.236;2023-07-20T02:34:29;186.38;;;177.90;;
5929;SDS011;2990;48.746;9.236;2023-07-20T02:36:54;175.07;;;167.15;;
5929;SDS011;2990;48.746;9.236;2023-07-20T02:39:24;178.98;;;171.00;;
5929;SDS011;2990;48.746;9.236;2023-07-20T02:41:49;156.02;;;149.13;;
5929;SDS011;2990;48.746;9.236;2023-07-20T02:44:15;152.82;;;146.02;;
5929;SDS011;2990;48.746;9.236;2023-07-20T02:46:41;154.13;;;147.38;;
5929;SDS011;2990;48.746;9.236;2023-07-20T02:49:06;151.85;;;145.30;;
5929;SDS011;2990;48.746;9.236;2023-07-20T02:51:32;147.30;;;140.85;;
5929;SDS011;2990;48.746;9.236;2023-07-20T02:53:58;134.20;;;128.40;;
5929;SDS011;2990;48.746;9.236;2023-07-20T02:56:24;144.23;;;138.00;;
5929;SDS011;2990;48.746;9.236;2023-07-20T02:58:51;142.02;;;135.82;;
5929;SDS011;2990;48.746;9.236;2023-07-20T03:01:17;134.90;;;129.02;;
5929;SDS011;2990;48.746;9.236;2023-07-20T03:03:43;135.02;;;129.07;;
5929;SDS011;2990;48.746;9.236;2023-07-20T03:06:11;127.60;;;122.05;;
5929;SDS011;2990;48.746;9.236;2023-07-20T03:08:39;130.45;;;124.82;;
5929;SDS011;2990;48.746;9.236;2023-07-20T03:11:06;133.75;;;128.02;;
5929;SDS011;2990;48.746;9.236;2023-07-20T03:13:32;132.70;;;127.03;;
5929;SDS011;2990;48.746;9.236;2023-07-20T03:15:58;131.88;;;126.22;;
5929;SDS011;2990;48.746;9.236;2023-07-20T03:18:24;118.65;;;113.60;;
5929;SDS011;2990;48.746;9.236;2023-07-20T03:20:49;133.98;;;128.18;;
5929;SDS011;2990;48.746;9.236;2023-07-20T03:23:15;117.70;;;112.70;;
5929;SDS011;2990;48.746;9.236;2023-07-20T03:25:41;122.00;;;116.82;;
5929;SDS011;2990;48.746;9.236;2023-07-20T03:28:07;122.25;;;117.05;;
5929;SDS011;2990;48.746;9.236;2023-07-20T03:30:33;120.93;;;115.82;;
5929;SDS011;2990;48.746;9.236;2023-07-20T03:33:00;115.60;;;110.68;;
5929;SDS011;2990;48.746;9.236;2023-07-20T03:35:26;123.88;;;118.57;;
5929;SDS011;2990;48.746;9.236;2023-07-20T03:37:54;114.78;;;109.93;;
5929;SDS011;2990;48.746;9.236;2023-07-20T03:40:20;119.55;;;114.40;;
5929;SDS011;2990;48.746;9.236;2023-07-20T03:42:46;119.15;;;114.07;;
5929;SDS011;2990;48.746;9.236;2023-07-20T03:45:15;115.82;;;110.93;;
5929;SDS011;2990;48.746;9.236;2023-07-20T03:47:40;119.95;;;114.88;;
5929;SDS011;2990;48.746;9.236;2023-07-20T03:50:06;115.10;;;110.25;;
5929;SDS011;2990;48.746;9.236;2023-07-20T03:52:33;109.05;;;104.43;;
5929;SDS011;2990;48.746;9.236;2023-07-20T03:54:59;110.07;;;105.38;;
5929;SDS011;2990;48.746;9.236;2023-07-20T03:57:24;115.47;;;110.57;;
5929;SDS011;2990;48.746;9.236;2023-07-20T03:59:50;121.35;;;115.97;;
5929;SDS011;2990;48.746;9.236;2023-07-20T04:02:15;111.60;;;106.88;;
5929;SDS011;2990;48.746;9.236;2023-07-20T04:04:41;112.30;;;107.55;;
5929;SDS011;2990;48.746;9.236;2023-07-20T04:07:06;117.95;;;112.88;;
5929;SDS011;2990;48.746;9.236;2023-07-20T04:09:32;114.13;;;109.25;;
5929;SDS011;2990;48.746;9.236;2023-07-20T04:11:58;113.38;;;108.55;;
5929;SDS011;2990;48.746;9.236;2023-07-20T04:14:24;118.85;;;113.72;;
5929;SDS011;2990;48.746;9.236;2023-07-20T04:16:49;118.68;;;113.45;;
5929;SDS011;2990;48.746;9.236;2023-07-20T04:19:16;114.40;;;109.50;;
5929;SDS011;2990;48.746;9.236;2023-07-20T04:21:43;137.30;;;131.20;;
5929;SDS011;2990;48.746;9.236;2023-07-20T04:24:08;127.05;;;121.55;;
5929;SDS011;2990;48.746;9.236;2023-07-20T04:26:34;135.23;;;129.35;;
5929;SDS011;2990;48.746;9.236;2023-07-20T04:29:00;138.73;;;132.73;;
5929;SDS011;2990;48.746;9.236;2023-07-20T04:31:26;134.55;;;128.75;;
5929;SDS011;2990;48.746;9.236;2023-07-20T04:33:51;142.95;;;136.65;;
5929;SDS011;2990;48.746;9.236;2023-07-20T04:36:17;156.63;;;149.77;;
5929;SDS011;2990;48.746;9.236;2023-07-20T04:38:45;168.93;;;161.48;;
5929;SDS011;2990;48.746;9.236;2023-07-20T04:41:11;162.02;;;154.80;;
5929;SDS011;2990;48.746;9.236;2023-07-20T04:43:40;180.75;;;172.43;;
5929;SDS011;2990;48.746;9.236;2023-07-20T04:46:08;195.60;;;186.35;;
5929;SDS011;2990;48.746;9.236;2023-07-20T04:48:34;199.52;;;190.20;;
5929;SDS011;2990;48.746;9.236;2023-07-20T04:51:00;230.20;;;219.15;;
5929;SDS011;2990;48.746;9.236;2023-07-20T04:53:25;242.52;;;230.68;;
5929;SDS011;2990;48.746;9.236;2023-07-20T04:55:51;253.07;;;240.68;;
5929;SDS011;2990;48.746;9.236;2023-07-20T04:58:19;262.90;;;249.95;;
5929;SDS011;2990;48.746;9.236;2023-07-20T05:00:48;276.40;;;262.50;;
5929;SDS011;2990;48.746;9.236;2023-07-20T05:03:14;306.50;;;290.70;;
5929;SDS011;2990;48.746;9.236;2023-07-20T05:05:40;338.70;;;320.92;;
5929;SDS011;2990;48.746;9.236;2023-07-20T05:08:06;320.27;;;303.40;;
5929;SDS011;2990;48.746;9.236;2023-07-20T05:10:31;331.17;;;313.90;;
5929;SDS011;2990;48.746;9.236;2023-07-20T05:12:57;339.75;;;321.88;;
5929;SDS011;2990;48.746;9.236;2023-07-20T05:15:24;319.33;;;302.65;;
5929;SDS011;2990;48.746;9.236;2023-07-20T05:17:49;345.20;;;326.90;;
5929;SDS011;2990;48.746;9.236;2023-07-20T05:20:15;320.17;;;303.33;;
5929;SDS011;2990;48.746;9.236;2023-07-20T05:22:41;355.45;;;336.17;;
5929;SDS011;2990;48.746;9.236;2023-07-20T05:25:08;339.15;;;321.15;;
5929;SDS011;2990;48.746;9.236;2023-07-20T05:27:38;361.95;;;342.38;;
5929;SDS011;2990;48.746;9.236;2023-07-20T05:30:05;347.60;;;328.92;;
5929;SDS011;2990;48.746;9.236;2023-07-20T05:32:32;341.92;;;323.30;;
5929;SDS011;2990;48.746;9.236;2023-07-20T05:34:58;355.85;;;336.73;;
5929;SDS011;2990;48.746;9.236;2023-07-20T05:37:30;381.58;;;360.83;;
5929;SDS011;2990;48.746;9.236;2023-07-20T05:39:56;420.58;;;396.80;;
5929;SDS011;2990;48.746;9.236;2023-07-20T05:42:22;404.83;;;382.23;;
5929;SDS011;2990;48.746;9.236;2023-07-20T05:44:48;416.48;;;392.95;;
5929;SDS011;2990;48.746;9.236;2023-07-20T05:47:15;465.33;;;438.13;;
5929;SDS011;2990;48.746;9.236;2023-07-20T05:49:40;492.35;;;463.52;;
5929;SDS011;2990;48.746;9.236;2023-07-20T05:54:40;527.30;;;495.40;;
5929;SDS011;2990;48.746;9.236;2023-07-20T05:57:06;542.25;;;508.70;;
5929;SDS011;2990;48.746;9.236;2023-07-20T05:59:31;572.38;;;536.42;;
5929;SDS011;2990;48.746;9.236;2023-07-20T06:01:57;561.83;;;526.53;;
5929;SDS011;2990;48.746;9.236;2023-07-20T06:04:23;589.00;;;551.38;;
5929;SDS011;2990;48.746;9.236;2023-07-20T06:06:49;605.28;;;566.50;;
5929;SDS011;2990;48.746;9.236;2023-07-20T06:09:14;590.15;;;552.58;;
5929;SDS011;2990;48.746;9.236;2023-07-20T06:11:40;583.63;;;546.80;;
5929;SDS011;2990;48.746;9.236;2023-07-20T06:14:06;605.50;;;566.65;;
5929;SDS011;2990;48.746;9.236;2023-07-20T06:16:32;604.33;;;565.53;;
5929;SDS011;2990;48.746;9.236;2023-07-20T06:18:59;592.90;;;555.15;;
5929;SDS011;2990;48.746;9.236;2023-07-20T06:21:25;602.55;;;563.47;;
5929;SDS011;2990;48.746;9.236;2023-07-20T06:23:50;578.55;;;541.58;;
5929;SDS011;2990;48.746;9.236;2023-07-20T06:26:16;577.38;;;540.83;;
5929;SDS011;2990;48.746;9.236;2023-07-20T06:28:41;572.97;;;536.42;;
5929;SDS011;2990;48.746;9.236;2023-07-20T06:31:07;568.33;;;532.42;;
5929;SDS011;2990;48.746;9.236;2023-07-20T06:33:33;597.08;;;558.85;;
5929;SDS011;2990;48.746;9.236;2023-07-20T06:35:59;601.70;;;563.30;;
5929;SDS011;2990;48.746;9.236;2023-07-20T06:38:25;589.45;;;551.70;;
5929;SDS011;2990;48.746;9.236;2023-07-20T06:40:51;589.85;;;552.38;;
5929;SDS011;2990;48.746;9.236;2023-07-20T06:43:16;593.65;;;555.85;;
5929;SDS011;2990;48.746;9.236;2023-07-20T06:45:42;587.63;;;550.25;;
5929;SDS011;2990;48.746;9.236;2023-07-20T06:48:08;598.72;;;560.10;;
5929;SDS011;2990;48.746;9.236;2023-07-20T06:50:33;596.63;;;558.22;;
5929;SDS011;2990;48.746;9.236;2023-07-20T06:52:59;608.33;;;568.88;;
5929;SDS011;2990;48.746;9.236;2023-07-20T06:55:26;646.30;;;603.72;;
5929;SDS011;2990;48.746;9.236;2023-07-20T06:57:51;636.33;;;594.15;;
5929;SDS011;2990;48.746;9.236;2023-07-20T07:00:17;696.67;;;650.00;;
5929;SDS011;2990;48.746;9.236;2023-07-20T07:02:43;727.65;;;678.97;;
5929;SDS011;2990;48.746;9.236;2023-07-20T07:05:09;707.83;;;661.08;;
5929;SDS011;2990;48.746;9.236;2023-07-20T07:07:34;757.50;;;706.20;;
5929;SDS011;2990;48.746;9.236;2023-07-20T07:10:00;786.28;;;733.22;;
5929;SDS011;2990;48.746;9.236;2023-07-20T07:12:31;815.63;;;759.47;;
5929;SDS011;2990;48.746;9.236;2023-07-20T07:14:56;831.05;;;773.58;;
5929;SDS011;2990;48.746;9.236;2023-07-20T07:17:22;855.92;;;796.67;;
5929;SDS011;2990;48.746;9.236;2023-07-20T07:19:47;868.13;;;807.20;;
5929;SDS011;2990;48.746;9.236;2023-07-20T07:22:13;908.28;;;844.33;;
5929;SDS011;2990;48.746;9.236;2023-07-20T07:24:39;909.40;;;844.15;;
5929;SDS011;2990;48.746;9.236;2023-07-20T07:27:07;905.80;;;840.42;;
5929;SDS011;2990;48.746;9.236;2023-07-20T07:29:34;947.50;;;878.45;;
5929;SDS011;2990;48.746;9.236;2023-07-20T07:31:59;945.08;;;876.42;;
5929;SDS011;2990;48.746;9.236;2023-07-20T07:34:26;938.83;;;870.08;;
5929;SDS011;2990;48.746;9.236;2023-07-20T07:36:52;951.38;;;882.42;;
5929;SDS011;2990;48.746;9.236;2023-07-20T07:39:17;956.70;;;886.35;;
5929;SDS011;2990;48.746;9.236;2023-07-20T07:41:43;968.13;;;895.97;;
5929;SDS011;2990;48.746;9.236;2023-07-20T07:44:09;937.13;;;867.38;;
5929;SDS011;2990;48.746;9.236;2023-07-20T07:46:34;989.28;;;914.50;;
5929;SDS011;2990;48.746;9.236;2023-07-20T07:49:00;1013.13;;;935.40;;
5929;SDS011;2990;48.746;9.236;2023-07-20T07:51:25;1027.53;;;947.35;;
5929;SDS011;2990;48.746;9.236;2023-07-20T07:53:52;1035.70;;;953.47;;
5929;SDS011;2990;48.746;9.236;2023-07-20T07:56:18;1067.45;;;980.92;;
5929;SDS011;2990;48.746;9.236;2023-07-20T07:58:47;1084.38;;;993.40;;
5929;SDS011;2990;48.746;9.236;2023-07-20T08:01:19;1111.63;;;999.90;;
5929;SDS011;2990;48.746;9.236;2023-07-20T08:03:45;1113.70;;;999.90;;
5929;SDS011;2990;48.746;9.236;2023-07-20T08:06:14;1080.78;;;988.47;;
5929;SDS011;2990;48.746;9.236;2023-07-20T08:08:40;1112.93;;;999.90;;
5929;SDS011;2990;48.746;9.236;2023-07-20T08:11:05;1137.97;;;999.90;;
5929;SDS011;2990;48.746;9.236;2023-07-20T08:13:31;1154.22;;;999.90;;
5929;SDS011;2990;48.746;9.236;2023-07-20T08:15:57;1172.47;;;999.90;;
5929;SDS011;2990;48.746;9.236;2023-07-20T08:18:23;1187.20;;;999.90;;
5929;SDS011;2990;48.746;9.236;2023-07-20T08:20:49;1216.28;;;999.90;;
5929;SDS011;2990;48.746;9.236;2023-07-20T08:23:15;1205.63;;;999.90;;
5929;SDS011;2990;48.746;9.236;2023-07-20T08:25:40;1191.82;;;999.90;;
5929;SDS011;2990;48.746;9.236;2023-07-20T08:28:09;1206.63;;;999.90;;
5929;SDS011;2990;48.746;9.236;2023-07-20T08:30:39;1146.28;;;999.90;;
5929;SDS011;2990;48.746;9.236;2023-07-20T08:33:07;1223.30;;;999.90;;
5929;SDS011;2990;48.746;9.236;2023-07-20T08:35:33;1241.43;;;999.90;;
5929;SDS011;2990;48.746;9.236;2023-07-20T08:37:58;1192.68;;;999.90;;
5929;SDS011;2990;48.746;9.236;2023-07-20T08:40:24;1225.18;;;999.90;;
5929;SDS011;2990;48.746;9.236;2023-07-20T08:42:49;1231.28;;;999.90;;
5929;SDS011;2990;48.746;9.236;2023-07-20T08:45:15;1246.78;;;999.90;;
5929;SDS011;2990;48.746;9.236;2023-07-20T08:47:42;1204.13;;;999.90;;
5929;SDS011;2990;48.746;9.236;2023-07-20T08:50:10;1263.30;;;999.90;;
5929;SDS011;2990;48.746;9.236;2023-07-20T08:52:37;1259.15;;;999.90;;
5929;SDS011;2990;48.746;9.236;2023-07-20T08:55:03;1266.07;;;999.90;;
5929;SDS011;2990;48.746;9.236;2023-07-20T08:57:30;1290.20;;;999.90;;
5929;SDS011;2990;48.746;9.236;2023-07-20T08:59:59;1317.20;;;999.90;;
5929;SDS011;2990;48.746;9.236;2023-07-20T09:02:29;1298.47;;;999.90;;
5929;SDS011;2990;48.746;9.236;2023-07-20T09:05:00;1313.63;;;999.90;;
5929;SDS011;2990;48.746;9.236;2023-07-20T09:07:26;1297.15;;;999.90;;
5929;SDS011;2990;48.746;9.236;2023-07-20T09:09:52;1303.05;;;999.90;;
5929;SDS011;2990;48.746;9.236;2023-07-20T09:12:17;1259.65;;;999.90;;
5929;SDS011;2990;48.746;9.236;2023-07-20T09:14:43;1271.85;;;999.90;;
5929;SDS011;2990;48.746;9.236;2023-07-20T09:17:12;1363.28;;;999.90;;
5929;SDS011;2990;48.746;9.236;2023-07-20T09:19:45;1322.03;;;999.90;;
5929;SDS011;2990;48.746;9.236;2023-07-20T09:22:11;1334.45;;;999.90;;
5929;SDS011;2990;48.746;9.236;2023-07-20T09:24:36;1426.38;;;999.90;;
5929;SDS011;2990;48.746;9.236;2023-07-20T09:27:02;1400.78;;;999.90;;
5929;SDS011;2990;48.746;9.236;2023-07-20T09:29:29;1378.07;;;999.90;;
5929;SDS011;2990;48.746;9.236;2023-07-20T09:32:02;1408.68;;;999.90;;
5929;SDS011;2990;48.746;9.236;2023-07-20T09:34:32;1337.38;;;999.90;;
5929;SDS011;2990;48.746;9.236;2023-07-20T09:36:58;1423.20;;;999.90;;
5929;SDS011;2990;48.746;9.236;2023-07-20T09:39:24;1366.35;;;999.90;;
5929;SDS011;2990;48.746;9.236;2023-07-20T09:41:50;1402.88;;;999.90;;
5929;SDS011;2990;48.746;9.236;2023-07-20T09:44:17;1433.43;;;999.90;;
5929;SDS011;2990;48.746;9.236;2023-07-20T09:49:08;1484.72;;;999.90;;
5929;SDS011;2990;48.746;9.236;2023-07-20T09:51:34;1445.60;;;999.90;;
5929;SDS011;2990;48.746;9.236;2023-07-20T09:54:00;1457.15;;;999.90;;
5929;SDS011;2990;48.746;9.236;2023-07-20T09:56:26;1473.50;;;999.90;;
5929;SDS011;2990;48.746;9.236;2023-07-20T09:58:53;1463.43;;;999.90;;
5929;SDS011;2990;48.746;9.236;2023-07-20T10:01:20;1379.25;;;999.90;;
5929;SDS011;2990;48.746;9.236;2023-07-20T10:03:47;1313.57;;;999.90;;
5929;SDS011;2990;48.746;9.236;2023-07-20T10:06:15;1329.22;;;999.90;;
5929;SDS011;2990;48.746;9.236;2023-07-20T10:08:47;1360.20;;;999.90;;
5929;SDS011;2990;48.746;9.236;2023-07-20T10:11:17;1319.22;;;999.90;;
5929;SDS011;2990;48.746;9.236;2023-07-20T10:13:44;1358.97;;;999.90;;
5929;SDS011;2990;48.746;9.236;2023-07-20T10:16:12;1315.32;;;999.90;;
5929;SDS011;2990;48.746;9.236;2023-07-20T10:19:02;1379.72;;;999.90;;
5929;SDS011;2990;48.746;9.236;2023-07-20T10:21:31;1401.95;;;999.90;;
5929;SDS011;2990;48.746;9.236;2023-07-20T10:24:02;1423.28;;;999.90;;
5929;SDS011;2990;48.746;9.236;2023-07-20T10:26:29;1459.45;;;999.90;;
5929;SDS011;2990;48.746;9.236;2023-07-20T10:28:55;1433.90;;;999.90;;
5929;SDS011;2990;48.746;9.236;2023-07-20T10:31:22;1405.60;;;999.90;;
5929;SDS011;2990;48.746;9.236;2023-07-20T10:33:48;1412.88;;;999.90;;
5929;SDS011;2990;48.746;9.236;2023-07-20T10:36:15;1396.15;;;999.90;;
5929;SDS011;2990;48.746;9.236;2023-07-20T10:38:41;1430.28;;;999.90;;
5929;SDS011;2990;48.746;9.236;2023-07-20T10:41:21;1388.47;;;999.90;;
5929;SDS011;2990;48.746;9.236;2023-07-20T10:43:47;1357.43;;;999.90;;
5929;SDS011;2990;48.746;9.236;2023-07-20T10:46:14;1355.95;;;999.90;;
5929;SDS011;2990;48.746;9.236;2023-07-20T10:48:58;1364.75;;;999.90;;
5929;SDS011;2990;48.746;9.236;2023-07-20T10:51:25;1379.22;;;999.90;;
5929;SDS011;2990;48.746;9.236;2023-07-20T10:53:51;1381.72;;;999.90;;
5929;SDS011;2990;48.746;9.236;2023-07-20T10:56:22;1349.43;;;999.90;;
5929;SDS011;2990;48.746;9.236;2023-07-20T10:58:48;1343.10;;;999.90;;
5929;SDS011;2990;48.746;9.236;2023-07-20T11:01:16;1303.30;;;999.90;;
5929;SDS011;2990;48.746;9.236;2023-07-20T11:03:42;1346.75;;;999.90;;
5929;SDS011;2990;48.746;9.236;2023-07-20T11:08:57;1321.80;;;999.90;;
5929;SDS011;2990;48.746;9.236;2023-07-20T11:11:29;1331.85;;;999.90;;
5929;SDS011;2990;48.746;9.236;2023-07-20T11:13:59;1340.68;;;999.90;;
5929;SDS011;2990;48.746;9.236;2023-07-20T11:16:37;1309.70;;;999.90;;
5929;SDS011;2990;48.746;9.236;2023-07-20T11:19:04;1351.45;;;999.90;;
5929;SDS011;2990;48.746;9.236;2023-07-20T11:21:35;1329.93;;;999.90;;
5929;SDS011;2990;48.746;9.236;2023-07-20T11:24:03;1354.70;;;999.90;;
5929;SDS011;2990;48.746;9.236;2023-07-20T11:26:30;1351.57;;;999.90;;
5929;SDS011;2990;48.746;9.236;2023-07-20T11:28:55;1327.43;;;999.90;;
5929;SDS011;2990;48.746;9.236;2023-07-20T11:31:21;1319.00;;;999.90;;
5929;SDS011;2990;48.746;9.236;2023-07-20T11:33:46;1308.43;;;999.90;;
5929;SDS011;2990;48.746;9.236;2023-07-20T11:36:12;1336.95;;;999.90;;
5929;SDS011;2990;48.746;9.236;2023-07-20T11:38:41;1310.82;;;999.90;;
5929;SDS011;2990;48.746;9.236;2023-07-20T11:41:08;1318.50;;;999.90;;
5929;SDS011;2990;48.746;9.236;2023-07-20T11:43:34;1327.88;;;999.90;;
5929;SDS011;2990;48.746;9.236;2023-07-20T11:46:02;1290.03;;;999.90;;
5929;SDS011;2990;48.746;9.236;2023-07-20T11:48:30;1297.78;;;999.90;;
5929;SDS011;2990;48.746;9.236;2023-07-20T11:50:55;1290.38;;;999.90;;
5929;SDS011;2990;48.746;9.236;2023-07-20T11:53:21;1328.57;;;999.90;;
5929;SDS011;2990;48.746;9.236;2023-07-20T11:55:47;1315.47;;;999.90;;
5929;SDS011;2990;48.746;9.236;2023-07-20T11:58:13;1352.82;;;999.90;;
5929;SDS011;2990;48.746;9.236;2023-07-20T12:00:41;1322.97;;;999.90;;
5929;SDS011;2990;48.746;9.236;2023-07-20T12:03:09;1367.88;;;999.90;;
5929;SDS011;2990;48.746;9.236;2023-07-20T12:05:37;1263.15;;;999.90;;
5929;SDS011;2990;48.746;9.236;2023-07-20T12:08:03;1263.72;;;999.90;;
5929;SDS011;2990;48.746;9.236;2023-07-20T12:10:29;1285.93;;;999.90;;
5929;SDS011;2990;48.746;9.236;2023-07-20T12:13:00;1267.70;;;999.90;;
5929;SDS011;2990;48.746;9.236;2023-07-20T12:15:27;1376.20;;;999.90;;
5929;SDS011;2990;48.746;9.236;2023-07-20T12:17:58;1346.80;;;999.90;;
5929;SDS011;2990;48.746;9.236;2023-07-20T12:20:31;1468.25;;;999.90;;
5929;SDS011;2990;48.746;9.236;2023-07-20T12:23:11;1394.43;;;999.90;;
5929;SDS011;2990;48.746;9.236;2023-07-20T12:25:46;1375.10;;;999.90;;
5929;SDS011;2990;48.746;9.236;2023-07-20T12:28:13;1452.72;;;999.90;;
5929;SDS011;2990;48.746;9.236;2023-07-20T12:30:40;1445.05;;;999.90;;
5929;SDS011;2990;48.746;9.236;2023-07-20T12:33:07;1384.57;;;999.90;;
5929;SDS011;2990;48.746;9.236;2023-07-20T12:35:33;1361.18;;;999.90;;
5929;SDS011;2990;48.746;9.236;2023-07-20T12:37:59;1292.20;;;999.90;;
5929;SDS011;2990;48.746;9.236;2023-07-20T12:40:25;1397.85;;;999.90;;
5929;SDS011;2990;48.746;9.236;2023-07-20T12:42:51;1360.15;;;999.90;;
5929;SDS011;2990;48.746;9.236;2023-07-20T12:45:17;1532.18;;;999.90;;
5929;SDS011;2990;48.746;9.236;2023-07-20T12:47:42;1521.68;;;999.90;;
5929;SDS011;2990;48.746;9.236;2023-07-20T12:50:11;1409.57;;;999.90;;
5929;SDS011;2990;48.746;9.236;2023-07-20T12:52:37;1484.88;;;999.90;;
5929;SDS011;2990;48.746;9.236;2023-07-20T12:55:07;1559.30;;;999.90;;
5929;SDS011;2990;48.746;9.236;2023-07-20T12:57:34;1525.82;;;999.90;;
5929;SDS011;2990;48.746;9.236;2023-07-20T13:00:04;1558.50;;;999.90;;
5929;SDS011;2990;48.746;9.236;2023-07-20T13:02:34;1442.45;;;999.90;;
5929;SDS011;2990;48.746;9.236;2023-07-20T13:05:01;1458.78;;;999.90;;
5929;SDS011;2990;48.746;9.236;2023-07-20T13:07:30;1436.53;;;999.90;;
5929;SDS011;2990;48.746;9.236;2023-07-20T13:10:00;1365.80;;;999.90;;
5929;SDS011;2990;48.746;9.236;2023-07-20T13:12:29;1359.97;;;999.90;;
5929;SDS011;2990;48.746;9.236;2023-07-20T13:14:55;1409.90;;;999.90;;
5929;SDS011;2990;48.746;9.236;2023-07-20T13:17:22;1423.28;;;999.90;;
5929;SDS011;2990;48.746;9.236;2023-07-20T13:19:48;1512.97;;;999.90;;
5929;SDS011;2990;48.746;9.236;2023-07-20T13:22:13;1463.93;;;999.90;;
5929;SDS011;2990;48.746;9.236;2023-07-20T13:24:40;1433.28;;;999.90;;
5929;SDS011;2990;48.746;9.236;2023-07-20T13:27:06;1469.40;;;999.90;;
5929;SDS011;2990;48.746;9.236;2023-07-20T13:29:31;1483.15;;;999.90;;
5929;SDS011;2990;48.746;9.236;2023-07-20T13:31:57;1444.35;;;999.90;;
5929;SDS011;2990;48.746;9.236;2023-07-20T13:34:23;1456.88;;;999.90;;
5929;SDS011;2990;48.746;9.236;2023-07-20T13:36:49;1460.85;;;999.90;;
5929;SDS011;2990;48.746;9.236;2023-07-20T13:39:15;1449.22;;;999.90;;
5929;SDS011;2990;48.746;9.236;2023-07-20T13:41:41;1454.38;;;999.90;;
5929;SDS011;2990;48.746;9.236;2023-07-20T13:44:07;1434.45;;;999.90;;
5929;SDS011;2990;48.746;9.236;2023-07-20T13:46:33;1364.75;;;999.90;;
5929;SDS011;2990;48.746;9.236;2023-07-20T13:48:59;1453.50;;;999.90;;
5929;SDS011;2990;48.746;9.236;2023-07-20T13:51:24;1439.30;;;999.90;;
5929;SDS011;2990;48.746;9.236;2023-07-20T13:53:51;1480.13;;;999.90;;
5929;SDS011;2990;48.746;9.236;2023-07-20T13:56:16;1488.25;;;999.90;;
5929;SDS011;2990;48.746;9.236;2023-07-20T13:58:42;1452.20;;;999.90;;
5929;SDS011;2990;48.746;9.236;2023-07-20T14:01:08;1510.97;;;999.90;;
5929;SDS011;2990;48.746;9.236;2023-07-20T14:03:33;1607.07;;;999.90;;
5929;SDS011;2990;48.746;9.236;2023-07-20T14:05:59;1575.07;;;999.90;;
5929;SDS011;2990;48.746;9.236;2023-07-20T14:08:24;1614.47;;;999.90;;
5929;SDS011;2990;48.746;9.236;2023-07-20T14:10:50;1640.38;;;999.90;;
5929;SDS011;2990;48.746;9.236;2023-07-20T14:13:16;1648.32;;;999.90;;
5929;SDS011;2990;48.746;9.236;2023-07-20T14:15:42;1406.60;;;999.90;;
5929;SDS011;2990;48.746;9.236;2023-07-20T14:18:07;1468.57;;;999.90;;
5929;SDS011;2990;48.746;9.236;2023-07-20T14:20:33;1508.47;;;999.90;;
5929;SDS011;2990;48.746;9.236;2023-07-20T14:22:59;1538.03;;;999.90;;
5929;SDS011;2990;48.746;9.236;2023-07-20T14:25:24;1565.97;;;999.90;;
5929;SDS011;2990;48.746;9.236;2023-07-20T14:27:52;1545.20;;;999.90;;
5929;SDS011;2990;48.746;9.236;2023-07-20T14:30:18;1502.05;;;999.90;;
5929;SDS011;2990;48.746;9.236;2023-07-20T14:32:43;1528.70;;;999.90;;